createdAt,value
2023-04-10T00:00:46.202Z,6.07
2023-04-10T00:03:17.851Z,7.75
2023-04-10T00:05:46.694Z,6.75
2023-04-10T00:08:17.979Z,6.45
2023-04-10T00:10:49.146Z,6.95
2023-04-10T00:13:20.015Z,6.63
2023-04-10T00:15:51.646Z,6.93
2023-04-10T00:18:23.540Z,7.00
2023-04-10T00:20:52.348Z,6.03
2023-04-10T00:23:24.810Z,7.20
2023-04-10T00:25:54.640Z,7.05
2023-04-10T00:28:33.787Z,6.00
2023-04-10T00:31:05.859Z,6.78
2023-04-10T00:33:35.406Z,6.65
2023-04-10T00:36:05.389Z,7.20
2023-04-10T00:38:34.332Z,7.18
2023-04-10T00:41:08.293Z,6.65
2023-04-10T00:43:40.281Z,7.03
2023-04-10T00:46:11.743Z,6.45
2023-04-10T00:48:41.846Z,5.38
2023-04-10T00:51:13.640Z,5.68
2023-04-10T00:53:46.057Z,5.22
2023-04-10T00:56:19.024Z,5.78
2023-04-10T00:58:54.949Z,5.88
2023-04-10T01:01:28.396Z,5.82
2023-04-10T01:04:03.535Z,6.30
2023-04-10T01:06:59.047Z,5.53
2023-04-10T01:09:49.502Z,5.07
2023-04-10T01:12:29.616Z,4.72
2023-04-10T01:15:12.444Z,5.15
2023-04-10T01:17:53.077Z,4.53
2023-04-10T01:20:30.749Z,4.20
2023-04-10T01:23:25.369Z,4.38
2023-04-10T01:26:03.741Z,5.30
2023-04-10T01:29:02.342Z,4.72
2023-04-10T01:31:50.932Z,4.13
2023-04-10T01:34:27.212Z,4.22
2023-04-10T01:37:04.498Z,4.20
2023-04-10T01:39:38.587Z,4.45
2023-04-10T01:42:09.781Z,4.85
2023-04-10T01:44:46.477Z,5.53
2023-04-10T01:47:18.709Z,5.22
2023-04-10T01:49:49.803Z,5.32
2023-04-10T01:52:19.799Z,4.30
2023-04-10T01:54:59.106Z,4.63
2023-04-10T01:57:49.994Z,4.80
2023-04-10T02:00:24.542Z,4.82
2023-04-10T02:02:54.006Z,4.55
2023-04-10T02:05:25.210Z,5.00
2023-04-10T02:08:06.498Z,5.65
2023-04-10T02:11:18.426Z,4.57
2023-04-10T02:13:54.054Z,5.72
2023-04-10T02:16:24.359Z,5.53
2023-04-10T02:18:57.144Z,4.82
2023-04-10T02:21:29.456Z,5.13
2023-04-10T02:23:59.638Z,5.20
2023-04-10T02:26:48.977Z,5.22
2023-04-10T02:29:19.353Z,5.03
2023-04-10T02:31:56.934Z,4.93
2023-04-10T02:34:27.765Z,5.07
2023-04-10T02:37:01.881Z,5.82
2023-04-10T02:39:31.494Z,5.47
2023-04-10T02:42:01.641Z,6.15
2023-04-10T02:44:35.282Z,5.55
2023-04-10T02:47:04.721Z,4.88
2023-04-10T02:49:35.861Z,5.63
2023-04-10T02:52:15.250Z,5.22
2023-04-10T02:54:47.997Z,5.63
2023-04-10T02:57:25.963Z,5.28
2023-04-10T02:59:55.368Z,6.13
2023-04-10T03:02:28.689Z,5.32
2023-04-10T03:05:03.079Z,5.72
2023-04-10T03:07:34.668Z,6.55
2023-04-10T03:10:03.699Z,5.88
2023-04-10T03:12:32.759Z,7.10
2023-04-10T03:15:08.222Z,6.03
2023-04-10T03:17:44.714Z,6.43
2023-04-10T03:20:24.254Z,6.20
2023-04-10T03:22:56.642Z,5.57
2023-04-10T03:25:32.198Z,6.15
2023-04-10T03:28:08.890Z,6.32
2023-04-10T03:30:40.368Z,5.90
2023-04-10T03:33:12.740Z,5.90
2023-04-10T03:35:48.103Z,5.72
2023-04-10T03:38:17.162Z,5.90
2023-04-10T03:40:48.710Z,5.60
2023-04-10T03:43:29.444Z,5.68
2023-04-10T03:46:00.339Z,5.55
2023-04-10T03:48:32.843Z,5.25
2023-04-10T03:51:03.961Z,5.65
2023-04-10T03:53:36.421Z,5.50
2023-04-10T03:56:09.852Z,5.88
2023-04-10T03:58:45.825Z,4.90
2023-04-10T04:01:18.892Z,5.57
2023-04-10T04:04:01.705Z,5.50
2023-04-10T04:07:13.138Z,5.65
2023-04-10T04:10:02.762Z,5.70
2023-04-10T04:12:50.623Z,5.18
2023-04-10T04:15:40.390Z,6.03
2023-04-10T04:18:38.400Z,5.75
2023-04-10T04:21:34.275Z,5.93
2023-04-10T04:24:22.668Z,6.82
2023-04-10T04:27:06.620Z,6.13
2023-04-10T04:29:54.478Z,6.05
2023-04-10T04:32:35.143Z,6.00
2023-04-10T04:35:04.719Z,5.75
2023-04-10T04:37:52.706Z,5.35
2023-04-10T04:40:45.422Z,5.25
2023-04-10T04:43:23.937Z,4.60
2023-04-10T04:46:14.380Z,4.85
2023-04-10T04:49:01.741Z,5.22
2023-04-10T04:51:49.857Z,5.82
2023-04-10T04:54:41.390Z,6.30
2023-04-10T04:57:36.419Z,5.78
2023-04-10T05:00:24.256Z,5.95
2023-04-10T05:03:25.734Z,6.60
2023-04-10T05:06:19.327Z,5.65
2023-04-10T05:09:13.603Z,5.47
2023-04-10T05:12:09.656Z,5.93
2023-04-10T05:14:55.523Z,5.50
2023-04-10T05:18:05.784Z,5.15
2023-04-10T05:21:10.320Z,6.22
2023-04-10T05:24:04.827Z,5.43
2023-04-10T05:26:43.078Z,4.97
2023-04-10T05:29:36.015Z,5.45
2023-04-10T05:32:21.256Z,6.45
2023-04-10T05:35:03.836Z,5.70
2023-04-10T05:38:01.322Z,5.63
2023-04-10T05:40:46.384Z,4.97
2023-04-10T05:43:34.023Z,5.25
2023-04-10T05:46:24.159Z,5.32
2023-04-10T05:48:54.000Z,4.97
2023-04-10T05:51:50.663Z,5.03
2023-04-10T05:54:40.800Z,5.32
2023-04-10T05:57:33.332Z,6.10
2023-04-10T06:00:22.459Z,5.40
2023-04-10T06:03:31.255Z,5.68
2023-04-10T06:06:05.260Z,5.45
2023-04-10T06:08:35.243Z,5.60
2023-04-10T06:11:05.193Z,5.07
2023-04-10T06:13:34.564Z,5.78
2023-04-10T06:16:09.078Z,5.90
2023-04-10T06:18:39.406Z,6.03
2023-04-10T06:21:09.139Z,5.95
2023-04-10T06:23:41.380Z,6.32
2023-04-10T06:26:14.008Z,6.25
2023-04-10T06:28:46.262Z,5.68
2023-04-10T06:31:23.467Z,5.95
2023-04-10T06:33:52.509Z,5.57
2023-04-10T06:36:22.232Z,6.70
2023-04-10T06:39:07.537Z,6.43
2023-04-10T06:41:38.632Z,5.85
2023-04-10T06:44:25.674Z,6.03
2023-04-10T06:46:56.754Z,5.32
2023-04-10T06:49:31.112Z,5.03
2023-04-10T06:52:00.823Z,5.05
2023-04-10T06:54:31.884Z,5.07
2023-04-10T06:57:11.987Z,5.22
2023-04-10T06:59:41.120Z,6.22
2023-04-10T07:02:10.397Z,5.35
2023-04-10T07:04:39.821Z,5.40
2023-04-10T07:07:14.046Z,5.82
2023-04-10T07:09:45.528Z,5.97
2023-04-10T07:12:14.827Z,5.80
2023-04-10T07:14:44.023Z,5.60
2023-04-10T07:17:13.023Z,6.13
2023-04-10T07:19:41.975Z,5.90
2023-04-10T07:22:16.152Z,5.32
2023-04-10T07:24:50.334Z,5.57
2023-04-10T07:27:21.882Z,5.47
2023-04-10T07:29:50.938Z,5.25
2023-04-10T07:32:19.977Z,3.90
2023-04-10T07:34:53.354Z,4.93
2023-04-10T07:37:24.533Z,4.32
2023-04-10T07:39:56.056Z,5.00
2023-04-10T07:42:26.355Z,4.50
2023-04-10T07:44:57.827Z,3.95
2023-04-10T07:47:27.781Z,3.58
2023-04-10T07:49:59.195Z,3.72
2023-04-10T07:52:28.763Z,3.38
2023-04-10T07:54:57.908Z,3.40
2023-04-10T07:57:32.710Z,4.00
2023-04-10T08:00:07.832Z,3.90
2023-04-10T08:02:46.299Z,3.55
2023-04-10T08:05:16.186Z,4.30
2023-04-10T08:07:48.352Z,4.82
2023-04-10T08:10:20.719Z,3.95
2023-04-10T08:12:49.979Z,4.25
2023-04-10T08:15:19.840Z,4.28
2023-04-10T08:17:55.416Z,4.13
2023-04-10T08:20:26.821Z,4.45
2023-04-10T08:23:12.922Z,3.65
2023-04-10T08:25:49.071Z,4.45
2023-04-10T08:28:19.913Z,4.22
2023-04-10T08:30:49.645Z,4.10
2023-04-10T08:33:21.189Z,4.05
2023-04-10T08:35:55.796Z,3.70
2023-04-10T08:38:28.391Z,3.95
2023-04-10T08:40:57.511Z,4.10
2023-04-10T08:43:28.462Z,4.30
2023-04-10T08:46:00.538Z,3.78
2023-04-10T08:48:42.648Z,3.92
2023-04-10T08:51:20.023Z,3.20
2023-04-10T08:53:52.700Z,2.85
2023-04-10T08:56:28.333Z,2.80
2023-04-10T08:59:11.751Z,2.83
2023-04-10T09:04:13.488Z,2.78
2023-04-10T09:07:01.674Z,2.83
2023-04-10T09:09:33.695Z,2.65
2023-04-10T09:12:04.785Z,3.17
2023-04-10T09:14:38.574Z,3.22
2023-04-10T09:17:14.984Z,3.33
2023-04-10T09:19:46.169Z,3.42
2023-04-10T09:22:18.253Z,3.45
2023-04-10T09:24:48.758Z,3.08
2023-04-10T09:27:37.671Z,3.13
2023-04-10T09:30:09.774Z,3.00
2023-04-10T09:32:47.063Z,2.83
2023-04-10T09:35:22.941Z,2.80
2023-04-10T09:37:54.276Z,2.95
2023-04-10T09:40:25.863Z,2.75
2023-04-10T09:42:57.804Z,2.35
2023-04-10T09:45:50.283Z,2.80
2023-04-10T09:48:24.926Z,2.67
2023-04-10T09:50:58.655Z,2.80
2023-04-10T09:53:28.743Z,2.30
2023-04-10T09:56:05.769Z,2.95
2023-04-10T09:58:45.956Z,2.20
2023-04-10T10:01:15.226Z,2.85
2023-04-10T10:03:50.430Z,2.97
2023-04-10T10:06:22.723Z,2.30
2023-04-10T10:08:56.635Z,2.78
2023-04-10T10:11:35.587Z,2.30
2023-04-10T10:14:14.253Z,2.78
2023-04-10T10:16:55.725Z,2.35
2023-04-10T10:19:40.114Z,2.47
2023-04-10T10:22:13.488Z,2.75
2023-04-10T10:24:48.259Z,2.85
2023-04-10T10:27:18.826Z,3.72
2023-04-10T10:29:53.862Z,3.28
2023-04-10T10:32:27.074Z,3.58
2023-04-10T10:34:59.719Z,2.95
2023-04-10T10:37:31.175Z,2.75
2023-04-10T10:40:23.380Z,2.88
2023-04-10T10:43:02.411Z,3.10
2023-04-10T10:45:42.806Z,2.60
2023-04-10T10:48:14.979Z,2.60
2023-04-10T10:51:04.019Z,2.88
2023-04-10T10:53:39.367Z,2.60
2023-04-10T10:56:28.989Z,2.97
2023-04-10T10:59:08.402Z,2.70
2023-04-10T11:02:03.428Z,2.65
2023-04-10T11:04:51.072Z,2.92
2023-04-10T11:07:42.234Z,2.33
2023-04-10T11:10:12.765Z,2.60
2023-04-10T11:13:18.193Z,2.63
2023-04-10T11:15:54.564Z,2.72
2023-04-10T11:18:45.807Z,2.40
2023-04-10T11:23:58.946Z,2.70
2023-04-10T11:26:47.444Z,2.45
2023-04-10T11:29:19.326Z,2.70
2023-04-10T11:34:31.616Z,3.00
2023-04-10T11:37:03.830Z,2.42
2023-04-10T11:39:36.398Z,2.40
2023-04-10T11:42:12.167Z,2.95
2023-04-10T11:44:43.860Z,2.83
2023-04-10T11:47:14.063Z,2.85
2023-04-10T11:49:43.119Z,2.75
2023-04-10T11:52:13.299Z,2.78
2023-04-10T11:57:25.315Z,2.70
2023-04-10T11:59:59.985Z,2.58
2023-04-10T12:02:29.354Z,2.65
2023-04-10T12:04:59.920Z,2.30
2023-04-10T12:07:33.282Z,2.78
2023-04-10T12:10:06.726Z,2.78
2023-04-10T12:12:39.399Z,2.30
2023-04-10T12:15:29.182Z,2.28
2023-04-10T12:17:58.353Z,2.50
2023-04-10T12:20:31.371Z,2.33
2023-04-10T12:23:03.541Z,2.75
2023-04-10T12:25:32.732Z,2.70
2023-04-10T12:28:03.968Z,2.33
2023-04-10T12:30:36.071Z,2.58
2023-04-10T12:33:07.977Z,2.88
2023-04-10T12:35:45.407Z,2.58
2023-04-10T12:38:39.513Z,2.95
2023-04-10T12:41:10.662Z,2.30
2023-04-10T12:43:45.327Z,2.60
2023-04-10T12:46:25.179Z,2.70
2023-04-10T12:48:55.087Z,2.80
2023-04-10T12:51:45.383Z,2.50
2023-04-10T12:54:35.940Z,2.90
2023-04-10T12:57:30.480Z,2.97
2023-04-10T13:00:01.061Z,2.58
2023-04-10T13:02:33.502Z,3.03
2023-04-10T13:05:02.736Z,2.80
2023-04-10T13:07:35.011Z,2.70
2023-04-10T13:10:05.582Z,2.78
2023-04-10T13:12:36.681Z,2.97
2023-04-10T13:15:09.723Z,2.67
2023-04-10T13:17:41.989Z,2.67
2023-04-10T13:20:16.267Z,2.78
2023-04-10T13:22:48.417Z,2.63
2023-04-10T13:25:25.788Z,2.80
2023-04-10T13:27:55.698Z,2.58
2023-04-10T13:30:28.002Z,2.72
2023-04-10T13:33:00.207Z,2.35
2023-04-10T13:35:29.510Z,2.70
2023-04-10T13:37:59.373Z,3.55
2023-04-10T13:40:28.702Z,3.00
2023-04-10T13:43:00.761Z,2.17
2023-04-10T13:45:34.344Z,2.95
2023-04-10T13:48:08.097Z,2.42
2023-04-10T13:50:39.733Z,2.45
2023-04-10T13:53:11.379Z,2.90
2023-04-10T13:55:44.270Z,2.47
2023-04-10T13:58:22.435Z,2.45
2023-04-10T14:00:56.507Z,2.60
2023-04-10T14:03:27.834Z,2.88
2023-04-10T14:05:59.314Z,2.50
2023-04-10T14:08:30.611Z,2.28
2023-04-10T14:10:59.616Z,2.22
2023-04-10T14:13:31.753Z,2.50
2023-04-10T14:16:04.765Z,2.58
2023-04-10T14:18:39.651Z,2.45
2023-04-10T14:21:11.355Z,2.35
2023-04-10T14:23:46.640Z,2.38
2023-04-10T14:26:18.764Z,2.30
2023-04-10T14:28:50.358Z,2.60
2023-04-10T14:31:20.502Z,2.13
2023-04-10T14:33:53.174Z,2.67
2023-04-10T14:36:22.228Z,2.67
2023-04-10T14:38:56.422Z,2.35
2023-04-10T14:41:29.360Z,2.55
2023-04-10T14:44:00.427Z,2.72
2023-04-10T14:46:32.561Z,2.70
2023-04-10T14:49:04.748Z,2.72
2023-04-10T14:51:36.716Z,2.47
2023-04-10T14:54:06.061Z,2.58
2023-04-10T14:56:36.251Z,2.88
2023-04-10T14:59:15.766Z,2.72
2023-04-10T15:01:49.755Z,2.65
2023-04-10T15:04:23.815Z,2.70
2023-04-10T15:06:57.864Z,3.10
2023-04-10T15:09:32.876Z,2.97
2023-04-10T15:12:04.965Z,3.22
2023-04-10T15:14:33.990Z,3.15
2023-04-10T15:17:03.119Z,3.05
2023-04-10T15:19:32.327Z,2.83
2023-04-10T15:22:03.742Z,3.15
2023-04-10T15:24:46.963Z,3.53
2023-04-10T15:27:26.996Z,3.50
2023-04-10T15:29:55.949Z,3.42
2023-04-10T15:32:35.837Z,3.90
2023-04-10T15:35:15.488Z,3.97
2023-04-10T15:37:48.048Z,4.25
2023-04-10T15:43:00.542Z,4.45
2023-04-10T15:45:29.630Z,4.18
2023-04-10T15:48:01.833Z,4.43
2023-04-10T15:50:46.203Z,5.00
2023-04-10T15:53:15.438Z,4.93
2023-04-10T15:55:53.736Z,4.75
2023-04-10T15:58:40.351Z,5.20
2023-04-10T16:01:12.383Z,5.93
2023-04-10T16:03:54.726Z,5.65
2023-04-10T16:06:30.356Z,5.13
2023-04-10T16:09:15.292Z,5.22
2023-04-10T16:12:16.458Z,5.50
2023-04-10T16:17:47.612Z,5.00
2023-04-10T16:20:17.227Z,7.57
2023-04-10T16:22:46.706Z,5.78
2023-04-10T16:25:18.877Z,4.82
2023-04-10T16:27:54.392Z,5.70
2023-04-10T16:30:24.164Z,5.38
2023-04-10T16:32:53.614Z,4.90
2023-04-10T16:35:28.399Z,5.90
2023-04-10T16:37:57.602Z,4.88
2023-04-10T16:40:33.257Z,4.68
2023-04-10T16:43:05.634Z,5.25
2023-04-10T16:45:37.791Z,4.63
2023-04-10T16:48:12.143Z,4.82
2023-04-10T16:50:41.716Z,4.82
2023-04-10T16:53:12.501Z,4.70
2023-04-10T16:55:45.556Z,4.28
2023-04-10T17:00:52.841Z,3.67
2023-04-10T17:03:22.135Z,5.32
2023-04-10T17:05:54.495Z,4.20
2023-04-10T17:08:29.788Z,4.43
2023-04-10T17:10:59.392Z,3.88
2023-04-10T17:13:28.809Z,3.80
2023-04-10T17:16:00.718Z,6.20
2023-04-10T17:18:38.357Z,3.72
2023-04-10T17:21:15.054Z,4.35
2023-04-10T17:23:49.706Z,4.00
2023-04-10T17:26:21.632Z,3.78
2023-04-10T17:28:53.687Z,3.90
2023-04-10T17:31:23.843Z,4.40
2023-04-10T17:33:54.352Z,3.35
2023-04-10T17:36:27.475Z,3.20
2023-04-10T17:39:01.094Z,3.83
2023-04-10T17:41:32.224Z,4.15
2023-04-10T17:44:09.645Z,3.75
2023-04-10T17:46:41.175Z,4.13
2023-04-10T17:49:18.129Z,4.70
2023-04-10T17:51:50.745Z,4.78
2023-04-10T17:56:53.626Z,5.78
2023-04-10T17:59:32.510Z,4.60
2023-04-10T18:02:04.805Z,4.85
2023-04-10T18:04:40.101Z,5.15
2023-04-10T18:07:09.760Z,5.28
2023-04-10T18:09:46.130Z,5.15
2023-04-10T18:12:20.097Z,5.50
2023-04-10T18:14:51.522Z,5.75
2023-04-10T18:17:21.576Z,5.60
2023-04-10T18:19:55.750Z,16.30
2023-04-10T18:22:24.905Z,5.65
2023-04-10T18:24:56.215Z,6.50
2023-04-10T18:27:25.201Z,6.57
2023-04-10T18:29:54.575Z,5.88
2023-04-10T18:32:26.860Z,5.70
2023-04-10T18:34:56.213Z,6.65
2023-04-10T18:37:27.453Z,6.82
2023-04-10T18:39:58.745Z,6.15
2023-04-10T18:42:32.852Z,6.63
2023-04-10T18:45:05.468Z,6.55
2023-04-10T18:47:35.331Z,7.18
2023-04-10T18:50:04.600Z,6.55
2023-04-10T18:52:36.507Z,7.03
2023-04-10T18:55:05.784Z,6.95
2023-04-10T18:57:40.794Z,6.68
2023-04-10T19:00:14.453Z,7.03
2023-04-10T19:02:47.836Z,6.88
2023-04-10T19:05:17.720Z,5.85
2023-04-10T19:08:00.682Z,6.97
2023-04-10T19:10:37.996Z,6.85
2023-04-10T19:13:12.426Z,7.07
2023-04-10T19:15:47.077Z,5.72
2023-04-10T19:18:16.749Z,5.95
2023-04-10T19:20:50.893Z,5.93
2023-04-10T19:23:24.485Z,5.38
2023-04-10T19:26:00.742Z,5.35
2023-04-10T19:28:35.199Z,5.22
2023-04-10T19:31:04.412Z,6.05
2023-04-10T19:33:33.529Z,6.93
2023-04-10T19:36:02.709Z,6.28
2023-04-10T19:38:34.332Z,6.60
2023-04-10T19:41:17.448Z,6.97
2023-04-10T19:43:46.484Z,6.80
2023-04-10T19:46:23.762Z,6.93
2023-04-10T19:48:55.030Z,7.97
2023-04-10T19:51:28.733Z,7.57
2023-04-10T19:54:00.340Z,7.07
2023-04-10T19:56:32.406Z,7.38
2023-04-10T19:59:07.328Z,7.95
2023-04-10T20:01:36.710Z,7.45
2023-04-10T20:04:12.468Z,8.10
2023-04-10T20:06:44.550Z,6.85
2023-04-10T20:09:13.983Z,7.88
2023-04-10T20:11:49.093Z,8.88
2023-04-10T20:14:18.337Z,7.57
2023-04-10T20:16:50.294Z,9.05
2023-04-10T20:19:19.470Z,7.90
2023-04-10T20:21:57.182Z,8.82
2023-04-10T20:24:29.330Z,8.90
2023-04-10T20:26:59.118Z,9.25
2023-04-10T20:29:28.750Z,8.52
2023-04-10T20:31:58.810Z,8.90
2023-04-10T20:34:35.263Z,9.25
2023-04-10T20:37:05.162Z,10.07
2023-04-10T20:39:38.207Z,9.07
2023-04-10T20:42:07.339Z,9.38
2023-04-10T20:44:42.653Z,9.23
2023-04-10T20:47:11.703Z,9.38
2023-04-10T20:49:48.028Z,9.82
2023-04-10T20:52:19.254Z,8.73
2023-04-10T20:54:48.508Z,8.07
2023-04-10T20:57:18.742Z,8.50
2023-04-10T20:59:50.576Z,8.95
2023-04-10T21:02:22.977Z,8.90
2023-04-10T21:04:57.558Z,8.45
2023-04-10T21:07:30.748Z,8.63
2023-04-10T21:10:00.062Z,7.93
2023-04-10T21:12:31.776Z,8.48
2023-04-10T21:15:00.816Z,8.55
2023-04-10T21:17:34.657Z,7.65
2023-04-10T21:20:03.906Z,8.45
2023-04-10T21:22:34.124Z,8.73
2023-04-10T21:25:03.704Z,7.78
2023-04-10T21:27:32.630Z,7.95
2023-04-10T21:30:01.892Z,8.15
2023-04-10T21:32:34.492Z,7.68
2023-04-10T21:35:08.879Z,7.28
2023-04-10T21:37:40.040Z,7.43
2023-04-10T21:40:11.463Z,8.25
2023-04-10T21:42:44.851Z,6.70
2023-04-10T21:45:19.315Z,7.78
2023-04-10T21:47:51.266Z,6.72
2023-04-10T21:50:25.128Z,7.20
2023-04-10T21:53:01.306Z,7.18
2023-04-10T21:55:35.025Z,6.97
2023-04-10T21:58:10.262Z,7.15
2023-04-10T22:00:40.373Z,7.72
2023-04-10T22:03:12.096Z,6.57
2023-04-10T22:05:41.218Z,6.43
2023-04-10T22:08:10.536Z,6.68
2023-04-10T22:10:45.481Z,6.80
2023-04-10T22:13:29.570Z,7.30
2023-04-10T22:16:03.699Z,5.95
2023-04-10T22:18:32.839Z,5.65
2023-04-10T22:21:04.144Z,6.05
2023-04-10T22:23:33.114Z,6.85
2023-04-10T22:26:06.260Z,5.82
2023-04-10T22:28:36.072Z,6.80
2023-04-10T22:31:05.481Z,6.35
2023-04-10T22:33:34.516Z,5.50
2023-04-10T22:36:03.418Z,5.78
2023-04-10T22:38:37.836Z,6.18
2023-04-10T22:41:11.253Z,5.07
2023-04-10T22:43:40.047Z,5.75
2023-04-10T22:46:11.676Z,5.82
2023-04-10T22:48:41.213Z,5.82
2023-04-10T22:51:16.180Z,5.93
2023-04-10T22:53:47.578Z,5.93
2023-04-10T22:56:19.802Z,5.70
2023-04-10T22:58:49.842Z,5.57
2023-04-10T23:01:21.997Z,5.47
2023-04-10T23:03:54.337Z,5.78
2023-04-10T23:06:24.517Z,5.68
2023-04-10T23:08:56.536Z,5.20
2023-04-10T23:11:26.370Z,5.05
2023-04-10T23:14:00.036Z,5.20
2023-04-10T23:16:32.202Z,4.70
2023-04-10T23:19:14.068Z,4.88
2023-04-10T23:21:42.844Z,5.05
2023-04-10T23:24:15.174Z,4.72
2023-04-10T23:26:47.317Z,4.78
2023-04-10T23:29:18.536Z,3.95
2023-04-10T23:31:49.658Z,4.47
2023-04-10T23:34:27.085Z,4.28
2023-04-10T23:37:07.962Z,4.57
2023-04-10T23:39:36.712Z,4.47
2023-04-10T23:42:08.583Z,4.70
2023-04-10T23:44:40.578Z,4.38
2023-04-10T23:47:09.723Z,4.20
2023-04-10T23:49:38.735Z,4.22
2023-04-10T23:52:11.114Z,4.80
2023-04-10T23:54:40.991Z,5.55
2023-04-10T23:57:10.579Z,5.40
2023-04-10T23:59:42.517Z,4.78
